Willow Beach, Arizona
Current Conditions -  °F | °C
As of 1:51 AM on Sunday 23 Nov 2014 (Local Time) from KIGM Reporting Station
Clear Clear  
Wind Chill: 46°   Ceiling: Unl
Heat Index: 49°   Visibility: 10mi
Dew Point: 27°   Wind: 7mph
Humidity: 43%   Direction: 260°W
Pressure: 29.98"   Gusts: NA
Location:  35.19°N, 114.05°W
Report Text: KIGM 230851Z AUTO 26006KT 10SM CLR 09/M03 A2998 RMK AO2 SLP108 T00941028 53005
Loading
Personal Weather Stations






























Interactive Weather Map New forecast layout! Learn more

10-Day Weather Forecast

Advertisements
Track Severe Weather on mobile